createdAt,value
2018-12-05T00:00:24.829Z,4.80
2018-12-05T00:02:51.183Z,4.80
2018-12-05T00:05:17.542Z,4.80
2018-12-05T00:07:43.580Z,4.80
2018-12-05T00:10:09.973Z,4.80
2018-12-05T00:12:36.152Z,4.80
2018-12-05T00:15:03.763Z,4.80
2018-12-05T00:17:30.064Z,4.80
2018-12-05T00:19:56.178Z,4.90
2018-12-05T00:22:23.546Z,4.80
2018-12-05T00:24:49.705Z,4.70
2018-12-05T00:27:16.017Z,4.70
2018-12-05T00:29:42.254Z,4.80
2018-12-05T00:32:15.380Z,4.70
2018-12-05T00:34:41.668Z,4.80
2018-12-05T00:37:07.894Z,4.70
2018-12-05T00:39:33.924Z,4.70
2018-12-05T00:42:00.122Z,4.70
2018-12-05T00:44:26.571Z,4.80
2018-12-05T00:46:52.920Z,4.90
2018-12-05T00:49:19.167Z,4.80
2018-12-05T00:51:46.361Z,4.80
2018-12-05T00:54:12.634Z,4.80
2018-12-05T00:56:38.945Z,4.80
2018-12-05T00:59:05.223Z,4.80
2018-12-05T01:01:31.449Z,4.70
2018-12-05T01:03:57.676Z,4.50
2018-12-05T01:06:23.923Z,4.50
2018-12-05T01:08:50.207Z,4.60
2018-12-05T01:11:16.447Z,4.50
2018-12-05T01:13:44.851Z,4.60
2018-12-05T01:16:11.159Z,4.70
2018-12-05T01:18:37.374Z,4.80
2018-12-05T01:21:03.746Z,4.70
2018-12-05T01:23:30.162Z,4.70
2018-12-05T01:25:56.354Z,4.80
2018-12-05T01:28:23.762Z,4.70
2018-12-05T01:30:49.954Z,4.60
2018-12-05T01:33:16.439Z,4.50
2018-12-05T01:35:42.758Z,4.40
2018-12-05T01:38:08.984Z,4.50
2018-12-05T01:40:35.103Z,4.40
2018-12-05T01:43:01.316Z,4.50
2018-12-05T01:45:27.370Z,4.50
2018-12-05T01:47:59.193Z,4.40
2018-12-05T01:50:27.174Z,4.40
2018-12-05T01:52:53.319Z,4.30
2018-12-05T01:55:19.718Z,4.30
2018-12-05T01:57:45.870Z,4.20
2018-12-05T02:00:12.331Z,4.30
2018-12-05T02:02:38.598Z,4.30
2018-12-05T02:05:04.840Z,4.20
2018-12-05T02:07:31.042Z,4.10
2018-12-05T02:09:57.400Z,4.00
2018-12-05T02:14:56.626Z,4.10
2018-12-05T02:17:22.768Z,4.00
2018-12-05T02:19:48.982Z,4.00
2018-12-05T02:22:15.116Z,3.90
2018-12-05T02:24:45.022Z,4.00
2018-12-05T02:27:11.176Z,4.10
2018-12-05T02:29:43.517Z,4.10
2018-12-05T02:32:09.754Z,4.00
2018-12-05T02:34:36.159Z,4.10
2018-12-05T02:37:02.352Z,4.00
2018-12-05T02:39:28.701Z,4.00
2018-12-05T02:41:54.998Z,4.00
2018-12-05T02:44:21.203Z,4.00
2018-12-05T02:46:47.411Z,4.00
2018-12-05T02:49:13.550Z,3.90
2018-12-05T02:51:40.869Z,3.90
2018-12-05T02:54:07.092Z,3.90
2018-12-05T02:56:35.206Z,3.90
2018-12-05T02:59:01.394Z,3.90
2018-12-05T03:01:27.615Z,3.80
2018-12-05T03:03:53.814Z,3.80
2018-12-05T03:06:20.002Z,3.80
2018-12-05T03:08:46.332Z,3.80
2018-12-05T03:11:12.509Z,3.90
2018-12-05T03:13:44.222Z,3.90
2018-12-05T03:16:10.462Z,3.80
2018-12-05T03:18:36.684Z,3.80
2018-12-05T03:21:02.816Z,3.90
2018-12-05T03:23:28.867Z,3.90
2018-12-05T03:25:55.140Z,3.80
2018-12-05T03:28:21.173Z,3.70
2018-12-05T03:30:47.455Z,3.70
2018-12-05T03:33:13.664Z,3.60
2018-12-05T03:35:40.056Z,3.50
2018-12-05T03:38:06.399Z,3.40
2018-12-05T03:40:32.669Z,3.40
2018-12-05T03:42:58.887Z,3.40
2018-12-05T03:45:25.965Z,3.50
2018-12-05T03:47:57.156Z,3.60
2018-12-05T03:50:23.492Z,3.70
2018-12-05T03:52:49.635Z,3.70
2018-12-05T03:55:16.041Z,3.70
2018-12-05T03:57:42.830Z,3.70
2018-12-05T04:00:10.215Z,3.80
2018-12-05T04:02:36.375Z,3.70
2018-12-05T04:05:07.666Z,3.50
2018-12-05T04:07:33.770Z,3.30
2018-12-05T04:10:03.396Z,3.20
2018-12-05T04:12:30.728Z,3.10
2018-12-05T04:14:57.769Z,3.10
2018-12-05T04:17:24.798Z,3.30
2018-12-05T04:19:51.165Z,3.40
2018-12-05T04:22:17.365Z,3.50
2018-12-05T04:24:43.520Z,3.60
2018-12-05T04:27:10.808Z,3.50
2018-12-05T04:29:36.867Z,3.50
2018-12-05T04:32:05.277Z,3.60
2018-12-05T04:34:31.491Z,3.60
2018-12-05T04:36:57.797Z,3.60
2018-12-05T04:39:23.948Z,3.50
2018-12-05T04:41:50.239Z,3.50
2018-12-05T04:44:16.512Z,3.50
2018-12-05T04:46:42.842Z,3.50
2018-12-05T04:49:09.237Z,3.50
2018-12-05T04:51:35.374Z,3.40
2018-12-05T04:54:01.490Z,3.40
2018-12-05T04:56:27.626Z,3.40
2018-12-05T04:58:53.841Z,3.40
2018-12-05T05:01:20.075Z,3.40
2018-12-05T05:03:46.301Z,3.50
2018-12-05T05:06:12.458Z,3.50
2018-12-05T05:08:38.528Z,3.40
2018-12-05T05:11:04.676Z,3.40
2018-12-05T05:13:30.820Z,3.30
2018-12-05T05:15:57.112Z,3.30
2018-12-05T05:18:23.297Z,3.30
2018-12-05T05:20:50.685Z,3.40
2018-12-05T05:23:16.916Z,3.40
2018-12-05T05:25:43.747Z,3.40
2018-12-05T05:28:10.302Z,3.40
2018-12-05T05:30:36.484Z,3.40
2018-12-05T05:33:04.834Z,3.40
2018-12-05T05:35:31.617Z,3.30
2018-12-05T05:37:57.785Z,3.30
2018-12-05T05:40:23.957Z,3.40
2018-12-05T05:42:51.047Z,3.40
2018-12-05T05:45:19.193Z,3.40
2018-12-05T05:47:46.433Z,3.40
2018-12-05T05:50:13.063Z,3.40
2018-12-05T05:52:39.255Z,3.40
2018-12-05T05:55:07.702Z,3.40
2018-12-05T05:57:34.031Z,3.50
2018-12-05T06:00:01.283Z,3.40
2018-12-05T06:02:32.649Z,3.30
2018-12-05T06:04:58.969Z,3.30
2018-12-05T06:07:25.162Z,3.40
2018-12-05T06:09:54.420Z,3.50
2018-12-05T06:12:20.656Z,3.50
2018-12-05T06:14:47.019Z,3.50
2018-12-05T06:17:13.388Z,3.50
2018-12-05T06:19:39.501Z,3.60
2018-12-05T06:22:05.838Z,3.50
2018-12-05T06:24:32.995Z,3.50
2018-12-05T06:26:59.255Z,3.50
2018-12-05T06:29:25.632Z,3.60
2018-12-05T06:31:51.751Z,3.60
2018-12-05T06:34:18.600Z,3.60
2018-12-05T06:36:45.824Z,3.50
2018-12-05T06:39:12.084Z,3.50
2018-12-05T06:41:38.463Z,3.60
2018-12-05T06:44:04.756Z,3.60
2018-12-05T06:46:31.131Z,3.50
2018-12-05T06:48:58.522Z,3.30
2018-12-05T06:51:24.907Z,3.20
2018-12-05T06:53:51.315Z,3.10
2018-12-05T06:56:17.538Z,3.20
2018-12-05T06:58:43.765Z,3.10
2018-12-05T07:01:10.954Z,3.10
2018-12-05T07:03:39.529Z,3.20
2018-12-05T07:06:05.739Z,3.20
2018-12-05T07:08:32.171Z,3.40
2018-12-05T07:10:59.444Z,3.50
2018-12-05T07:13:26.021Z,3.60
2018-12-05T07:15:53.399Z,3.50
2018-12-05T07:18:19.798Z,3.50
2018-12-05T07:20:46.378Z,3.50
2018-12-05T07:23:12.756Z,3.60
2018-12-05T07:25:39.095Z,3.60
2018-12-05T07:28:05.218Z,3.60
2018-12-05T07:30:31.560Z,3.60
2018-12-05T07:32:57.796Z,3.70
2018-12-05T07:35:24.105Z,3.80
2018-12-05T07:37:52.974Z,3.90
2018-12-05T07:40:19.821Z,3.90
2018-12-05T07:42:46.309Z,4.00
2018-12-05T07:45:15.181Z,3.80
2018-12-05T07:47:41.363Z,3.80
2018-12-05T07:50:08.486Z,3.90
2018-12-05T07:52:34.870Z,4.00
2018-12-05T07:55:01.035Z,4.00
2018-12-05T07:57:28.352Z,4.00
2018-12-05T07:59:54.614Z,4.10
2018-12-05T08:02:21.955Z,4.20
2018-12-05T08:04:48.343Z,4.30
2018-12-05T08:07:14.587Z,4.20
2018-12-05T08:09:40.751Z,4.10
2018-12-05T08:12:08.011Z,4.00
2018-12-05T08:14:34.856Z,4.10
2018-12-05T08:17:01.154Z,4.20
2018-12-05T08:19:27.473Z,4.20
2018-12-05T08:21:54.503Z,4.40
2018-12-05T08:24:21.399Z,4.30
2018-12-05T08:26:47.802Z,4.40
2018-12-05T08:29:14.490Z,4.30
2018-12-05T08:31:40.748Z,4.40
2018-12-05T08:34:12.571Z,4.40
2018-12-05T08:36:39.268Z,4.40
2018-12-05T08:39:07.859Z,4.50
2018-12-05T08:41:35.118Z,4.70
2018-12-05T08:44:01.534Z,4.70
2018-12-05T08:46:29.697Z,4.80
2018-12-05T08:48:57.966Z,4.70
2018-12-05T08:51:24.079Z,4.70
2018-12-05T08:53:50.391Z,4.80
2018-12-05T08:56:18.812Z,4.90
2018-12-05T08:58:45.887Z,5.00
2018-12-05T09:01:12.054Z,5.00
2018-12-05T09:03:38.469Z,4.90
2018-12-05T09:06:04.765Z,4.80
2018-12-05T09:08:31.039Z,4.90
2018-12-05T09:10:57.310Z,5.10
2018-12-05T09:13:25.494Z,5.10
2018-12-05T09:15:52.555Z,5.00
2018-12-05T09:18:19.760Z,5.10
2018-12-05T09:20:45.899Z,5.00
2018-12-05T09:23:12.759Z,5.10
2018-12-05T09:25:41.015Z,5.20
2018-12-05T09:28:07.247Z,5.30
2018-12-05T09:30:33.744Z,5.30
2018-12-05T09:33:01.920Z,5.30
2018-12-05T09:35:28.082Z,5.30
2018-12-05T09:37:55.259Z,5.30
2018-12-05T09:40:22.921Z,5.40
2018-12-05T09:42:49.370Z,5.40
2018-12-05T09:45:16.460Z,5.40
2018-12-05T09:47:47.398Z,5.40
2018-12-05T09:50:13.815Z,5.40
2018-12-05T09:52:39.990Z,5.40
2018-12-05T09:55:06.271Z,5.40
2018-12-05T09:57:38.306Z,5.40
2018-12-05T10:00:07.003Z,5.40
2018-12-05T10:02:33.308Z,5.40
2018-12-05T10:04:59.595Z,5.50
2018-12-05T10:07:25.891Z,5.50
2018-12-05T10:09:54.299Z,5.60
2018-12-05T10:12:21.667Z,5.60
2018-12-05T10:14:48.652Z,5.80
2018-12-05T10:17:15.827Z,5.80
2018-12-05T10:19:43.704Z,5.80
2018-12-05T10:22:09.963Z,5.80
2018-12-05T10:24:36.519Z,5.70
2018-12-05T10:27:02.830Z,5.70
2018-12-05T10:29:29.115Z,5.80
2018-12-05T10:31:55.743Z,5.70
2018-12-05T10:34:22.038Z,5.70
2018-12-05T10:36:49.216Z,5.80
2018-12-05T10:39:15.407Z,5.90
2018-12-05T10:41:41.582Z,5.90
2018-12-05T10:44:11.518Z,5.80
2018-12-05T10:46:39.826Z,5.90
2018-12-05T10:49:08.554Z,6.00
2018-12-05T10:51:40.233Z,6.00
2018-12-05T10:54:07.047Z,5.90
2018-12-05T10:56:33.288Z,6.00
2018-12-05T10:58:59.831Z,6.00
2018-12-05T11:01:32.181Z,6.00
2018-12-05T11:04:07.933Z,6.10
2018-12-05T11:06:41.252Z,6.10
2018-12-05T11:09:13.581Z,6.10
2018-12-05T11:11:46.026Z,6.10
2018-12-05T11:14:19.943Z,6.10
2018-12-05T11:16:48.876Z,6.10
2018-12-05T11:19:21.191Z,6.20
2018-12-05T11:21:53.253Z,6.30
2018-12-05T11:24:26.954Z,6.30
2018-12-05T11:26:53.520Z,6.20
2018-12-05T11:29:22.170Z,6.10
2018-12-05T11:31:48.387Z,6.20
2018-12-05T11:34:19.130Z,6.10
2018-12-05T11:36:46.453Z,6.00
2018-12-05T11:39:12.804Z,6.10
2018-12-05T11:41:39.073Z,6.10
2018-12-05T11:44:16.044Z,6.10
2018-12-05T11:46:42.220Z,6.10
2018-12-05T11:49:08.650Z,6.10
2018-12-05T11:51:34.822Z,6.20
2018-12-05T11:54:01.302Z,6.20
2018-12-05T11:56:27.487Z,6.20
2018-12-05T11:58:53.635Z,6.20
2018-12-05T12:01:20.997Z,6.30
2018-12-05T12:03:47.239Z,6.30
2018-12-05T12:06:13.448Z,6.30
2018-12-05T12:08:39.768Z,6.30
2018-12-05T12:11:06.903Z,6.30
2018-12-05T12:13:32.993Z,6.40
2018-12-05T12:16:01.426Z,6.30
2018-12-05T12:18:27.679Z,6.30
2018-12-05T12:20:54.672Z,6.30
2018-12-05T12:23:20.976Z,6.30
2018-12-05T12:25:47.126Z,6.30
2018-12-05T12:28:13.465Z,6.40
2018-12-05T12:30:40.882Z,6.40
2018-12-05T12:33:07.148Z,6.50
2018-12-05T12:35:33.553Z,6.50
2018-12-05T12:38:01.866Z,6.50
2018-12-05T12:40:31.834Z,6.40
2018-12-05T12:43:01.772Z,6.30
2018-12-05T12:45:28.581Z,6.30
2018-12-05T12:47:54.822Z,6.20
2018-12-05T12:50:21.102Z,6.30
2018-12-05T12:52:47.290Z,6.30
2018-12-05T12:55:19.135Z,6.30
2018-12-05T12:57:45.301Z,6.30
2018-12-05T13:00:11.449Z,6.30
2018-12-05T13:02:37.746Z,6.30
2018-12-05T13:05:04.064Z,6.30
2018-12-05T13:07:30.167Z,6.40
2018-12-05T13:09:56.741Z,6.50
2018-12-05T13:12:25.925Z,6.50
2018-12-05T13:14:52.983Z,6.50
2018-12-05T13:17:19.233Z,6.60
2018-12-05T13:19:45.637Z,6.80
2018-12-05T13:22:12.480Z,7.00
2018-12-05T13:24:38.703Z,7.40
2018-12-05T13:27:04.830Z,7.60
2018-12-05T13:29:30.956Z,7.90
2018-12-05T13:31:57.683Z,8.10
2018-12-05T13:34:26.198Z,8.20
2018-12-05T13:36:52.561Z,8.30
2018-12-05T13:39:19.850Z,8.60
2018-12-05T13:41:47.121Z,8.90
2018-12-05T13:44:13.587Z,9.00
2018-12-05T13:46:39.982Z,9.20
2018-12-05T13:49:06.011Z,9.40
2018-12-05T13:51:32.318Z,9.50
2018-12-05T13:53:58.471Z,9.50
2018-12-05T13:56:24.696Z,9.40
2018-12-05T13:58:51.033Z,9.20
2018-12-05T14:01:18.235Z,9.00
2018-12-05T14:03:45.402Z,9.00
2018-12-05T14:06:11.458Z,9.00
2018-12-05T14:08:37.772Z,9.10
2018-12-05T14:11:03.976Z,9.10
2018-12-05T14:13:30.886Z,9.10
2018-12-05T14:15:57.879Z,9.20
2018-12-05T14:18:24.047Z,9.40
2018-12-05T14:20:51.555Z,9.30
2018-12-05T14:23:17.849Z,9.10
2018-12-05T14:25:48.476Z,8.90
2018-12-05T14:28:15.795Z,8.70
2018-12-05T14:30:42.759Z,8.60
2018-12-05T14:33:09.043Z,8.40
2018-12-05T14:35:35.201Z,8.30
2018-12-05T14:38:02.696Z,8.20
2018-12-05T14:40:28.989Z,8.10
2018-12-05T14:42:55.345Z,7.90
2018-12-05T14:45:21.744Z,7.90
2018-12-05T14:47:51.067Z,7.70
2018-12-05T14:50:17.314Z,7.60
2018-12-05T14:52:43.723Z,7.50
2018-12-05T14:55:09.882Z,7.40
2018-12-05T14:57:37.403Z,7.40
2018-12-05T15:00:07.337Z,7.30
2018-12-05T15:02:33.550Z,7.30
2018-12-05T15:05:00.230Z,7.30
2018-12-05T15:07:26.539Z,7.20
2018-12-05T15:09:53.093Z,7.10
2018-12-05T15:12:23.580Z,7.10
2018-12-05T15:14:49.971Z,7.00
2018-12-05T15:17:16.326Z,7.10
2018-12-05T15:19:43.024Z,7.00
2018-12-05T15:22:09.322Z,7.00
2018-12-05T15:24:36.933Z,6.90
2018-12-05T15:27:09.593Z,6.80
2018-12-05T15:29:35.901Z,6.70
2018-12-05T15:32:02.138Z,6.80
2018-12-05T15:34:30.196Z,6.80
2018-12-05T15:36:57.307Z,6.70
2018-12-05T15:39:25.800Z,6.80
2018-12-05T15:41:54.098Z,6.80
2018-12-05T15:44:20.298Z,6.70
2018-12-05T15:46:46.619Z,6.70
2018-12-05T15:49:13.866Z,6.70
2018-12-05T15:51:40.214Z,6.60
2018-12-05T15:54:06.521Z,6.60
2018-12-05T15:56:34.754Z,6.60
2018-12-05T15:59:01.906Z,6.60
2018-12-05T16:01:28.233Z,6.60
2018-12-05T16:03:57.249Z,6.60
2018-12-05T16:06:25.218Z,6.60
2018-12-05T16:08:52.441Z,6.60
2018-12-05T16:11:20.925Z,6.60
2018-12-05T16:13:49.244Z,6.60
2018-12-05T16:16:17.236Z,6.60
2018-12-05T16:18:43.387Z,6.70
2018-12-05T16:21:09.960Z,6.60
2018-12-05T16:23:37.228Z,6.60
2018-12-05T16:26:10.455Z,6.60
2018-12-05T16:28:33.097Z,6.60
2018-12-05T16:30:59.677Z,6.70
2018-12-05T16:33:25.878Z,6.70
2018-12-05T16:35:51.959Z,6.70
2018-12-05T16:38:22.112Z,6.60
2018-12-05T16:40:49.404Z,6.60
2018-12-05T16:43:16.679Z,6.60
2018-12-05T16:45:42.923Z,6.50
2018-12-05T16:48:09.292Z,6.50
2018-12-05T16:50:35.532Z,6.50
2018-12-05T16:53:01.751Z,6.50
2018-12-05T16:55:27.891Z,6.50
2018-12-05T16:57:53.941Z,6.50
2018-12-05T17:00:20.198Z,6.50
2018-12-05T17:02:46.703Z,6.50
2018-12-05T17:05:13.233Z,6.40
2018-12-05T17:07:40.571Z,6.40
2018-12-05T17:10:06.920Z,6.40
2018-12-05T17:12:34.184Z,6.50
2018-12-05T17:15:00.269Z,6.50
2018-12-05T17:17:26.759Z,6.50
2018-12-05T17:19:52.961Z,6.40
2018-12-05T17:22:19.629Z,6.40
2018-12-05T17:24:46.537Z,6.50
2018-12-05T17:27:12.739Z,6.40
2018-12-05T17:29:40.133Z,6.30
2018-12-05T17:32:07.309Z,6.30
2018-12-05T17:34:34.029Z,6.30
2018-12-05T17:37:00.223Z,6.30
2018-12-05T17:39:27.484Z,6.30
2018-12-05T17:41:57.874Z,6.20
2018-12-05T17:44:23.992Z,6.10
2018-12-05T17:46:52.353Z,6.20
2018-12-05T17:49:19.596Z,6.20
2018-12-05T17:51:47.999Z,6.20
2018-12-05T17:54:15.233Z,6.20
2018-12-05T17:56:41.511Z,6.20
2018-12-05T17:59:08.320Z,6.20
2018-12-05T18:01:44.298Z,6.40
2018-12-05T18:04:13.129Z,6.30
2018-12-05T18:06:42.758Z,6.30
2018-12-05T18:09:10.461Z,6.30
2018-12-05T18:11:36.978Z,6.30
2018-12-05T18:14:03.560Z,6.30
2018-12-05T18:16:30.688Z,6.30
2018-12-05T18:18:57.067Z,6.30
2018-12-05T18:21:25.787Z,6.20
2018-12-05T18:23:52.601Z,6.30
2018-12-05T18:26:18.856Z,6.30
2018-12-05T18:28:52.755Z,6.30
2018-12-05T18:31:21.192Z,6.30
2018-12-05T18:33:48.970Z,6.30
2018-12-05T18:36:16.139Z,6.30
2018-12-05T18:38:42.615Z,6.20
2018-12-05T18:41:09.378Z,6.30
2018-12-05T18:43:38.346Z,6.20
2018-12-05T18:46:05.968Z,6.20
2018-12-05T18:48:33.785Z,6.30
2018-12-05T18:51:00.219Z,6.30
2018-12-05T18:53:26.450Z,6.30
2018-12-05T18:55:54.298Z,6.30
2018-12-05T18:58:23.055Z,6.40
2018-12-05T19:00:49.392Z,6.30
2018-12-05T19:03:18.681Z,6.30
2018-12-05T19:05:45.148Z,6.30
2018-12-05T19:08:11.502Z,6.30
2018-12-05T19:10:38.251Z,6.30
2018-12-05T19:13:05.531Z,6.40
2018-12-05T19:15:32.524Z,6.40
2018-12-05T19:18:00.194Z,6.30
2018-12-05T19:20:29.796Z,6.40
2018-12-05T19:22:56.707Z,6.40
2018-12-05T19:25:24.115Z,6.30
2018-12-05T19:27:50.408Z,6.30
2018-12-05T19:30:17.836Z,6.40
2018-12-05T19:32:45.220Z,6.40
2018-12-05T19:35:12.607Z,6.40
2018-12-05T19:37:38.867Z,6.40
2018-12-05T19:40:05.375Z,6.50
2018-12-05T19:42:31.958Z,6.40
2018-12-05T19:44:58.619Z,6.40
2018-12-05T19:47:25.925Z,6.40
2018-12-05T19:49:52.319Z,6.30
2018-12-05T19:52:18.875Z,6.30
2018-12-05T19:54:46.262Z,6.30
2018-12-05T20:00:08.968Z,6.30
2018-12-05T20:02:37.400Z,6.30
2018-12-05T20:05:04.749Z,6.30
2018-12-05T20:07:32.307Z,6.30
2018-12-05T20:09:59.626Z,6.40
2018-12-05T20:12:27.652Z,6.40
2018-12-05T20:14:54.933Z,6.30
2018-12-05T20:17:21.215Z,6.40
2018-12-05T20:19:48.802Z,6.40
2018-12-05T20:22:18.749Z,6.40
2018-12-05T20:24:45.988Z,6.40
2018-12-05T20:27:12.425Z,6.50
2018-12-05T20:29:38.769Z,6.50
2018-12-05T20:32:06.886Z,6.50
2018-12-05T20:34:34.059Z,6.60
2018-12-05T20:37:00.759Z,6.50
2018-12-05T20:39:29.105Z,6.50
2018-12-05T20:41:59.800Z,6.40
2018-12-05T20:44:27.231Z,6.50
2018-12-05T20:46:53.594Z,6.50
2018-12-05T20:49:20.382Z,6.40
2018-12-05T20:51:48.729Z,6.40
2018-12-05T20:54:14.942Z,6.40
2018-12-05T20:56:49.579Z,6.40
2018-12-05T20:59:15.995Z,6.30
2018-12-05T21:01:44.031Z,6.40
2018-12-05T21:04:11.086Z,6.40
2018-12-05T21:06:40.196Z,6.50
2018-12-05T21:09:08.662Z,6.50
2018-12-05T21:11:35.075Z,6.60
2018-12-05T21:14:04.303Z,6.50
2018-12-05T21:16:30.803Z,6.50
2018-12-05T21:18:58.187Z,6.60
2018-12-05T21:21:26.251Z,6.60
2018-12-05T21:23:53.407Z,6.60
2018-12-05T21:26:19.950Z,6.50
2018-12-05T21:28:46.921Z,6.50
2018-12-05T21:31:21.733Z,6.50
2018-12-05T21:33:50.981Z,6.50
2018-12-05T21:36:19.137Z,6.50
2018-12-05T21:38:46.467Z,6.50
2018-12-05T21:41:13.262Z,6.50
2018-12-05T21:43:40.296Z,6.50
2018-12-05T21:46:07.187Z,6.50
2018-12-05T21:48:34.812Z,6.50
2018-12-05T21:51:01.450Z,6.50
2018-12-05T21:53:29.154Z,6.50
2018-12-05T21:55:56.365Z,6.50
2018-12-05T21:58:22.651Z,6.50
2018-12-05T22:00:53.576Z,6.50
2018-12-05T22:03:20.739Z,6.50
2018-12-05T22:05:46.870Z,6.40
2018-12-05T22:08:13.363Z,6.50
2018-12-05T22:10:39.573Z,6.50
2018-12-05T22:13:05.969Z,6.40
2018-12-05T22:15:34.377Z,6.40
2018-12-05T22:18:00.586Z,6.40
2018-12-05T22:20:26.788Z,6.50
2018-12-05T22:22:53.158Z,6.50
2018-12-05T22:25:19.364Z,6.50
2018-12-05T22:27:45.651Z,6.50
2018-12-05T22:30:12.736Z,6.50
2018-12-05T22:32:43.194Z,6.50
2018-12-05T22:35:09.370Z,6.50
2018-12-05T22:37:35.621Z,6.50
2018-12-05T22:40:03.914Z,6.50
2018-12-05T22:42:30.238Z,6.50
2018-12-05T22:44:56.497Z,6.50
2018-12-05T22:47:23.705Z,6.50
2018-12-05T22:49:50.094Z,6.50
2018-12-05T22:52:16.250Z,6.50
2018-12-05T22:54:42.583Z,6.60
2018-12-05T22:57:11.265Z,6.50
2018-12-05T22:59:37.550Z,6.50
2018-12-05T23:02:03.933Z,6.50
2018-12-05T23:04:29.925Z,6.50
2018-12-05T23:06:56.135Z,6.50
2018-12-05T23:09:23.518Z,6.60
2018-12-05T23:11:49.852Z,6.60
2018-12-05T23:14:16.694Z,6.60
2018-12-05T23:16:43.002Z,6.60
2018-12-05T23:19:09.308Z,6.60
2018-12-05T23:21:37.891Z,6.60
2018-12-05T23:24:04.160Z,6.60
2018-12-05T23:26:30.600Z,6.60
2018-12-05T23:28:56.851Z,6.60
2018-12-05T23:31:23.478Z,6.60
2018-12-05T23:33:51.956Z,6.60
2018-12-05T23:36:18.282Z,6.70
2018-12-05T23:38:44.657Z,6.70
2018-12-05T23:41:10.820Z,6.70
2018-12-05T23:43:37.103Z,6.60
2018-12-05T23:46:03.436Z,6.70
2018-12-05T23:48:29.691Z,6.70
2018-12-05T23:50:55.929Z,6.70
2018-12-05T23:53:22.014Z,6.70
2018-12-05T23:55:49.937Z,6.70
2018-12-05T23:58:16.210Z,6.80
